Terminal Aerodrome Forecast
Issued by NWS

Home | Current Version | Previous Version | Text Only | Print | Product List | Glossary On
Versions: 1 2 3 4 5 6 7 8 9 10 11 12
000
FTUS45 KRIW 210523
TAFWRL
TAF
KWRL 210523Z 2106/2206 35007KT P6SM SCT100 BKN200
     FM211200 VRB05KT P6SM SCT100 BKN200
     FM212000 29010KT P6SM BKN200
     FM220100 15007KT P6SM BKN200=

USA.gov is the U.S. government's official web portal to all federal, state and local government web resources and services.